Terminal Aerodrome Forecast
Issued by NWS

Home | Current Version | Previous Version | Text Only | Print | Product List | Glossary On
Versions: 1 2 3 4 5 6 7 8 9 10 11 12 13 14 15
000
FTUS44 KLZK 261100
TAFHRO
TAF
KHRO 261126Z 2612/2712 17006KT P6SM BKN060
      TEMPO 2614/2618 -RA BKN035
     FM261800 26010KT P6SM BKN100
     FM262000 30014G22KT P6SM SCT150
     FM270100 30009KT P6SM BKN025=

USA.gov is the U.S. government's official web portal to all federal, state and local government web resources and services.